Firebaugh, California
Current Conditions -  °F | °C
As of 7:53 AM on Thursday 18 Dec 2014 (Local Time) from KMAE Reporting Station
Clear Clear  
Wind Chill: 44°   Ceiling: Unl
Heat Index: 47°   Visibility: 10mi
Dew Point: 42°   Wind: 6mph
Humidity: 83%   Direction: 80°E
Pressure: 30.17"   Gusts: NA
Location:  36.86°N, 120.46°W
Report Text: KMAE 181553Z AUTO 08005KT 10SM CLR 08/06 A3017 RMK AO2 SLP217 T00830056
Loading
Personal Weather Stations






























Interactive Weather Map New forecast layout! Learn more

10-Day Weather Forecast

Advertisements
Track Severe Weather on mobile